sensor_id;sensor_type;location;lat;lon;timestamp;P1;durP1;ratioP1;P2;durP2;ratioP2
14396;SDS011;50653;0.000;0.000;2022-08-19T00:01:26;7.30;;;7.00;;
14396;SDS011;50653;0.000;0.000;2022-08-19T00:03:54;7.60;;;7.10;;
14396;SDS011;50653;0.000;0.000;2022-08-19T00:06:20;7.43;;;7.03;;
14396;SDS011;50653;0.000;0.000;2022-08-19T00:08:46;6.27;;;5.93;;
14396;SDS011;50653;0.000;0.000;2022-08-19T00:11:12;6.90;;;6.50;;
14396;SDS011;50653;0.000;0.000;2022-08-19T00:13:37;7.13;;;6.73;;
14396;SDS011;50653;0.000;0.000;2022-08-19T00:16:04;6.60;;;6.30;;
14396;SDS011;50653;0.000;0.000;2022-08-19T00:18:31;9.00;;;8.20;;
14396;SDS011;50653;0.000;0.000;2022-08-19T00:20:57;6.90;;;6.47;;
14396;SDS011;50653;0.000;0.000;2022-08-19T00:23:24;7.70;;;7.30;;
14396;SDS011;50653;0.000;0.000;2022-08-19T00:25:50;7.90;;;7.50;;
14396;SDS011;50653;0.000;0.000;2022-08-19T00:28:17;8.80;;;8.33;;
14396;SDS011;50653;0.000;0.000;2022-08-19T00:30:43;8.80;;;8.30;;
14396;SDS011;50653;0.000;0.000;2022-08-19T00:33:09;8.23;;;7.73;;
14396;SDS011;50653;0.000;0.000;2022-08-19T00:35:34;10.50;;;9.80;;
14396;SDS011;50653;0.000;0.000;2022-08-19T00:38:00;7.27;;;6.87;;
14396;SDS011;50653;0.000;0.000;2022-08-19T00:40:26;7.37;;;7.07;;
14396;SDS011;50653;0.000;0.000;2022-08-19T00:42:51;7.53;;;7.13;;
14396;SDS011;50653;0.000;0.000;2022-08-19T00:45:21;8.87;;;8.27;;
14396;SDS011;50653;0.000;0.000;2022-08-19T00:47:50;9.13;;;8.30;;
14396;SDS011;50653;0.000;0.000;2022-08-19T00:50:17;6.73;;;6.33;;
14396;SDS011;50653;0.000;0.000;2022-08-19T00:52:45;8.57;;;8.10;;
14396;SDS011;50653;0.000;0.000;2022-08-19T00:55:23;7.33;;;6.87;;
14396;SDS011;50653;0.000;0.000;2022-08-19T00:57:55;6.73;;;6.40;;
14396;SDS011;50653;0.000;0.000;2022-08-19T01:00:27;9.53;;;8.63;;
14396;SDS011;50653;0.000;0.000;2022-08-19T01:02:53;9.30;;;8.70;;
14396;SDS011;50653;0.000;0.000;2022-08-19T01:05:21;10.53;;;9.93;;
14396;SDS011;50653;0.000;0.000;2022-08-19T01:07:50;9.73;;;9.13;;
14396;SDS011;50653;0.000;0.000;2022-08-19T01:10:17;10.83;;;10.00;;
14396;SDS011;50653;0.000;0.000;2022-08-19T01:12:46;9.27;;;8.77;;
14396;SDS011;50653;0.000;0.000;2022-08-19T01:15:16;9.07;;;8.57;;
14396;SDS011;50653;0.000;0.000;2022-08-19T01:17:44;8.77;;;8.17;;
14396;SDS011;50653;0.000;0.000;2022-08-19T01:20:15;8.40;;;7.87;;
14396;SDS011;50653;0.000;0.000;2022-08-19T01:22:51;9.73;;;8.90;;
14396;SDS011;50653;0.000;0.000;2022-08-19T01:25:20;9.67;;;8.93;;
14396;SDS011;50653;0.000;0.000;2022-08-19T01:27:50;8.03;;;7.63;;
14396;SDS011;50653;0.000;0.000;2022-08-19T01:30:21;8.90;;;8.33;;
14396;SDS011;50653;0.000;0.000;2022-08-19T01:32:50;10.00;;;9.20;;
14396;SDS011;50653;0.000;0.000;2022-08-19T01:35:17;10.27;;;9.27;;
14396;SDS011;50653;0.000;0.000;2022-08-19T01:37:44;10.40;;;9.57;;
14396;SDS011;50653;0.000;0.000;2022-08-19T01:40:14;9.87;;;8.97;;
14396;SDS011;50653;0.000;0.000;2022-08-19T01:42:41;9.53;;;8.90;;
14396;SDS011;50653;0.000;0.000;2022-08-19T01:45:07;11.07;;;10.37;;
14396;SDS011;50653;0.000;0.000;2022-08-19T01:47:36;10.20;;;9.50;;
14396;SDS011;50653;0.000;0.000;2022-08-19T01:50:04;12.53;;;9.70;;
14396;SDS011;50653;0.000;0.000;2022-08-19T01:52:34;13.30;;;9.90;;
14396;SDS011;50653;0.000;0.000;2022-08-19T01:55:01;11.60;;;10.70;;
14396;SDS011;50653;0.000;0.000;2022-08-19T01:57:26;12.23;;;11.43;;
14396;SDS011;50653;0.000;0.000;2022-08-19T01:59:52;11.60;;;10.80;;
14396;SDS011;50653;0.000;0.000;2022-08-19T02:02:18;10.50;;;9.80;;
14396;SDS011;50653;0.000;0.000;2022-08-19T02:04:44;10.70;;;10.00;;
14396;SDS011;50653;0.000;0.000;2022-08-19T02:07:11;10.67;;;9.97;;
14396;SDS011;50653;0.000;0.000;2022-08-19T02:09:37;11.47;;;10.67;;
14396;SDS011;50653;0.000;0.000;2022-08-19T02:12:03;11.70;;;10.90;;
14396;SDS011;50653;0.000;0.000;2022-08-19T02:14:29;9.60;;;9.00;;
14396;SDS011;50653;0.000;0.000;2022-08-19T02:16:55;10.77;;;9.87;;
14396;SDS011;50653;0.000;0.000;2022-08-19T02:19:21;9.33;;;8.60;;
14396;SDS011;50653;0.000;0.000;2022-08-19T02:21:47;11.60;;;10.73;;
14396;SDS011;50653;0.000;0.000;2022-08-19T02:24:13;10.50;;;9.90;;
14396;SDS011;50653;0.000;0.000;2022-08-19T02:26:38;11.77;;;10.87;;
14396;SDS011;50653;0.000;0.000;2022-08-19T02:29:04;14.03;;;11.20;;
14396;SDS011;50653;0.000;0.000;2022-08-19T02:31:30;9.87;;;9.27;;
14396;SDS011;50653;0.000;0.000;2022-08-19T02:33:56;13.00;;;12.10;;
14396;SDS011;50653;0.000;0.000;2022-08-19T02:36:22;10.10;;;9.40;;
14396;SDS011;50653;0.000;0.000;2022-08-19T02:38:49;10.87;;;10.10;;
14396;SDS011;50653;0.000;0.000;2022-08-19T02:41:20;10.97;;;10.30;;
14396;SDS011;50653;0.000;0.000;2022-08-19T02:43:48;10.97;;;10.10;;
14396;SDS011;50653;0.000;0.000;2022-08-19T02:46:21;10.30;;;9.50;;
14396;SDS011;50653;0.000;0.000;2022-08-19T02:48:50;10.33;;;9.57;;
14396;SDS011;50653;0.000;0.000;2022-08-19T02:51:18;10.80;;;10.10;;
14396;SDS011;50653;0.000;0.000;2022-08-19T02:53:49;11.10;;;10.27;;
14396;SDS011;50653;0.000;0.000;2022-08-19T02:56:15;12.37;;;11.47;;
14396;SDS011;50653;0.000;0.000;2022-08-19T02:58:40;12.00;;;11.20;;
14396;SDS011;50653;0.000;0.000;2022-08-19T03:01:06;12.13;;;11.27;;
14396;SDS011;50653;0.000;0.000;2022-08-19T03:03:32;11.50;;;10.70;;
14396;SDS011;50653;0.000;0.000;2022-08-19T03:06:12;11.40;;;10.50;;
14396;SDS011;50653;0.000;0.000;2022-08-19T03:08:39;11.90;;;10.87;;
14396;SDS011;50653;0.000;0.000;2022-08-19T03:11:12;11.53;;;10.63;;
14396;SDS011;50653;0.000;0.000;2022-08-19T03:13:57;10.70;;;10.00;;
14396;SDS011;50653;0.000;0.000;2022-08-19T03:16:25;9.87;;;9.20;;
14396;SDS011;50653;0.000;0.000;2022-08-19T03:18:52;12.10;;;11.10;;
14396;SDS011;50653;0.000;0.000;2022-08-19T03:21:21;10.90;;;10.10;;
14396;SDS011;50653;0.000;0.000;2022-08-19T03:23:49;10.60;;;10.00;;
14396;SDS011;50653;0.000;0.000;2022-08-19T03:26:15;9.87;;;9.27;;
14396;SDS011;50653;0.000;0.000;2022-08-19T03:28:42;11.57;;;10.67;;
14396;SDS011;50653;0.000;0.000;2022-08-19T03:31:12;10.40;;;9.70;;
14396;SDS011;50653;0.000;0.000;2022-08-19T03:33:39;10.77;;;10.07;;
14396;SDS011;50653;0.000;0.000;2022-08-19T03:36:10;10.63;;;9.93;;
14396;SDS011;50653;0.000;0.000;2022-08-19T03:38:40;9.77;;;9.13;;
14396;SDS011;50653;0.000;0.000;2022-08-19T03:41:11;10.20;;;9.20;;
14396;SDS011;50653;0.000;0.000;2022-08-19T03:43:39;10.33;;;9.60;;
14396;SDS011;50653;0.000;0.000;2022-08-19T03:46:12;10.53;;;9.83;;
14396;SDS011;50653;0.000;0.000;2022-08-19T03:48:40;10.17;;;9.50;;
14396;SDS011;50653;0.000;0.000;2022-08-19T03:51:08;11.10;;;10.20;;
14396;SDS011;50653;0.000;0.000;2022-08-19T03:53:46;10.83;;;9.90;;
14396;SDS011;50653;0.000;0.000;2022-08-19T03:56:12;10.90;;;10.20;;
14396;SDS011;50653;0.000;0.000;2022-08-19T03:58:38;9.33;;;8.83;;
14396;SDS011;50653;0.000;0.000;2022-08-19T04:01:12;9.87;;;9.13;;
14396;SDS011;50653;0.000;0.000;2022-08-19T04:03:40;9.63;;;8.77;;
14396;SDS011;50653;0.000;0.000;2022-08-19T04:06:09;10.93;;;10.13;;
14396;SDS011;50653;0.000;0.000;2022-08-19T04:08:42;10.20;;;9.50;;
14396;SDS011;50653;0.000;0.000;2022-08-19T04:11:09;10.80;;;9.80;;
14396;SDS011;50653;0.000;0.000;2022-08-19T04:13:38;11.80;;;10.90;;
14396;SDS011;50653;0.000;0.000;2022-08-19T04:16:04;10.83;;;10.03;;
14396;SDS011;50653;0.000;0.000;2022-08-19T04:18:31;13.00;;;11.97;;
14396;SDS011;50653;0.000;0.000;2022-08-19T04:20:59;12.80;;;11.80;;
14396;SDS011;50653;0.000;0.000;2022-08-19T04:23:26;10.77;;;10.03;;
14396;SDS011;50653;0.000;0.000;2022-08-19T04:25:53;9.03;;;8.33;;
14396;SDS011;50653;0.000;0.000;2022-08-19T04:28:19;11.27;;;10.20;;
14396;SDS011;50653;0.000;0.000;2022-08-19T04:30:46;11.03;;;10.10;;
14396;SDS011;50653;0.000;0.000;2022-08-19T04:33:15;10.53;;;9.63;;
14396;SDS011;50653;0.000;0.000;2022-08-19T04:35:44;11.80;;;9.37;;
14396;SDS011;50653;0.000;0.000;2022-08-19T04:38:13;12.00;;;11.00;;
14396;SDS011;50653;0.000;0.000;2022-08-19T04:40:41;9.57;;;8.90;;
14396;SDS011;50653;0.000;0.000;2022-08-19T04:43:27;11.10;;;9.90;;
14396;SDS011;50653;0.000;0.000;2022-08-19T04:45:54;13.47;;;10.03;;
14396;SDS011;50653;0.000;0.000;2022-08-19T04:48:19;10.87;;;9.87;;
14396;SDS011;50653;0.000;0.000;2022-08-19T04:50:50;9.70;;;9.10;;
14396;SDS011;50653;0.000;0.000;2022-08-19T04:53:29;11.07;;;10.20;;
14396;SDS011;50653;0.000;0.000;2022-08-19T04:55:57;10.53;;;9.53;;
14396;SDS011;50653;0.000;0.000;2022-08-19T04:58:24;11.03;;;10.23;;
14396;SDS011;50653;0.000;0.000;2022-08-19T05:00:52;10.50;;;9.60;;
14396;SDS011;50653;0.000;0.000;2022-08-19T05:03:18;9.97;;;9.07;;
14396;SDS011;50653;0.000;0.000;2022-08-19T05:05:45;9.73;;;8.93;;
14396;SDS011;50653;0.000;0.000;2022-08-19T05:08:13;10.80;;;9.93;;
14396;SDS011;50653;0.000;0.000;2022-08-19T05:10:45;12.97;;;11.80;;
14396;SDS011;50653;0.000;0.000;2022-08-19T05:13:12;13.47;;;11.33;;
14396;SDS011;50653;0.000;0.000;2022-08-19T05:15:39;9.70;;;9.10;;
14396;SDS011;50653;0.000;0.000;2022-08-19T05:18:05;8.97;;;8.47;;
14396;SDS011;50653;0.000;0.000;2022-08-19T05:20:49;9.50;;;8.60;;
14396;SDS011;50653;0.000;0.000;2022-08-19T05:23:33;13.40;;;9.17;;
14396;SDS011;50653;0.000;0.000;2022-08-19T05:25:59;9.40;;;8.70;;
14396;SDS011;50653;0.000;0.000;2022-08-19T05:28:25;9.77;;;8.87;;
14396;SDS011;50653;0.000;0.000;2022-08-19T05:30:50;11.50;;;10.50;;
14396;SDS011;50653;0.000;0.000;2022-08-19T05:33:17;9.60;;;8.80;;
14396;SDS011;50653;0.000;0.000;2022-08-19T05:35:43;17.40;;;10.40;;
14396;SDS011;50653;0.000;0.000;2022-08-19T05:38:10;10.80;;;9.77;;
14396;SDS011;50653;0.000;0.000;2022-08-19T05:40:36;10.90;;;10.07;;
14396;SDS011;50653;0.000;0.000;2022-08-19T05:54:31;10.80;;;9.70;;
14396;SDS011;50653;0.000;0.000;2022-08-19T05:56:58;13.63;;;11.03;;
14396;SDS011;50653;0.000;0.000;2022-08-19T05:59:25;17.80;;;16.20;;
14396;SDS011;50653;0.000;0.000;2022-08-19T06:01:51;11.80;;;10.70;;
14396;SDS011;50653;0.000;0.000;2022-08-19T06:04:19;12.27;;;10.70;;
14396;SDS011;50653;0.000;0.000;2022-08-19T06:06:46;11.53;;;10.63;;
14396;SDS011;50653;0.000;0.000;2022-08-19T06:09:13;14.20;;;10.90;;
14396;SDS011;50653;0.000;0.000;2022-08-19T06:11:41;11.13;;;10.30;;
14396;SDS011;50653;0.000;0.000;2022-08-19T06:14:10;10.73;;;9.90;;
14396;SDS011;50653;0.000;0.000;2022-08-19T06:16:38;11.40;;;10.40;;
14396;SDS011;50653;0.000;0.000;2022-08-19T06:19:12;11.23;;;10.43;;
14396;SDS011;50653;0.000;0.000;2022-08-19T06:21:41;11.30;;;10.37;;
14396;SDS011;50653;0.000;0.000;2022-08-19T06:24:09;12.57;;;11.67;;
14396;SDS011;50653;0.000;0.000;2022-08-19T06:26:37;12.30;;;11.40;;
14396;SDS011;50653;0.000;0.000;2022-08-19T06:29:05;11.03;;;10.00;;
14396;SDS011;50653;0.000;0.000;2022-08-19T06:31:32;11.53;;;10.53;;
14396;SDS011;50653;0.000;0.000;2022-08-19T06:34:00;10.70;;;9.90;;
14396;SDS011;50653;0.000;0.000;2022-08-19T06:36:38;11.60;;;10.67;;
14396;SDS011;50653;0.000;0.000;2022-08-19T06:39:09;12.63;;;11.50;;
14396;SDS011;50653;0.000;0.000;2022-08-19T06:41:40;10.60;;;9.80;;
14396;SDS011;50653;0.000;0.000;2022-08-19T06:44:15;9.97;;;9.10;;
14396;SDS011;50653;0.000;0.000;2022-08-19T06:46:42;11.13;;;10.23;;
14396;SDS011;50653;0.000;0.000;2022-08-19T06:49:09;10.03;;;9.33;;
14396;SDS011;50653;0.000;0.000;2022-08-19T06:51:36;12.47;;;11.27;;
14396;SDS011;50653;0.000;0.000;2022-08-19T06:54:03;10.70;;;10.00;;
14396;SDS011;50653;0.000;0.000;2022-08-19T06:56:30;10.03;;;9.23;;
14396;SDS011;50653;0.000;0.000;2022-08-19T06:59:06;11.83;;;10.93;;
14396;SDS011;50653;0.000;0.000;2022-08-19T07:01:34;13.43;;;12.27;;
14396;SDS011;50653;0.000;0.000;2022-08-19T07:04:06;12.00;;;11.00;;
14396;SDS011;50653;0.000;0.000;2022-08-19T07:06:34;12.80;;;11.70;;
14396;SDS011;50653;0.000;0.000;2022-08-19T07:09:02;13.40;;;12.20;;
14396;SDS011;50653;0.000;0.000;2022-08-19T07:11:29;12.80;;;11.80;;
14396;SDS011;50653;0.000;0.000;2022-08-19T07:13:55;14.67;;;11.97;;
14396;SDS011;50653;0.000;0.000;2022-08-19T07:16:21;13.63;;;12.37;;
14396;SDS011;50653;0.000;0.000;2022-08-19T07:18:48;11.33;;;10.43;;
14396;SDS011;50653;0.000;0.000;2022-08-19T07:21:19;14.70;;;13.60;;
14396;SDS011;50653;0.000;0.000;2022-08-19T07:23:48;14.33;;;12.83;;
14396;SDS011;50653;0.000;0.000;2022-08-19T07:26:15;11.67;;;10.90;;
14396;SDS011;50653;0.000;0.000;2022-08-19T07:28:44;11.53;;;10.20;;
14396;SDS011;50653;0.000;0.000;2022-08-19T07:31:16;13.17;;;12.07;;
14396;SDS011;50653;0.000;0.000;2022-08-19T07:33:44;12.60;;;11.60;;
14396;SDS011;50653;0.000;0.000;2022-08-19T07:36:12;12.43;;;11.53;;
14396;SDS011;50653;0.000;0.000;2022-08-19T07:38:40;14.33;;;13.03;;
14396;SDS011;50653;0.000;0.000;2022-08-19T07:41:11;16.23;;;14.83;;
14396;SDS011;50653;0.000;0.000;2022-08-19T07:43:38;12.03;;;11.07;;
14396;SDS011;50653;0.000;0.000;2022-08-19T07:46:05;11.57;;;10.60;;
14396;SDS011;50653;0.000;0.000;2022-08-19T07:48:31;11.73;;;10.93;;
14396;SDS011;50653;0.000;0.000;2022-08-19T07:50:58;12.50;;;10.90;;
14396;SDS011;50653;0.000;0.000;2022-08-19T07:53:27;9.40;;;8.77;;
14396;SDS011;50653;0.000;0.000;2022-08-19T07:55:54;12.00;;;11.03;;
14396;SDS011;50653;0.000;0.000;2022-08-19T07:58:20;8.60;;;8.00;;
14396;SDS011;50653;0.000;0.000;2022-08-19T08:00:48;9.27;;;8.60;;
14396;SDS011;50653;0.000;0.000;2022-08-19T08:03:15;8.77;;;7.97;;
14396;SDS011;50653;0.000;0.000;2022-08-19T08:05:43;9.23;;;8.50;;
14396;SDS011;50653;0.000;0.000;2022-08-19T08:08:28;8.60;;;8.00;;
14396;SDS011;50653;0.000;0.000;2022-08-19T08:11:12;9.90;;;9.20;;
14396;SDS011;50653;0.000;0.000;2022-08-19T08:13:39;8.80;;;8.40;;
14396;SDS011;50653;0.000;0.000;2022-08-19T08:16:06;9.43;;;8.83;;
14396;SDS011;50653;0.000;0.000;2022-08-19T08:18:32;9.03;;;8.53;;
14396;SDS011;50653;0.000;0.000;2022-08-19T08:20:59;10.20;;;9.50;;
14396;SDS011;50653;0.000;0.000;2022-08-19T08:23:25;9.03;;;8.53;;
14396;SDS011;50653;0.000;0.000;2022-08-19T08:25:51;9.63;;;8.93;;
14396;SDS011;50653;0.000;0.000;2022-08-19T08:28:20;10.93;;;10.13;;
14396;SDS011;50653;0.000;0.000;2022-08-19T08:30:46;10.00;;;9.40;;
14396;SDS011;50653;0.000;0.000;2022-08-19T08:33:16;11.40;;;10.40;;
14396;SDS011;50653;0.000;0.000;2022-08-19T08:35:44;9.73;;;9.10;;
14396;SDS011;50653;0.000;0.000;2022-08-19T08:38:10;9.93;;;8.80;;
14396;SDS011;50653;0.000;0.000;2022-08-19T08:43:18;8.50;;;7.80;;
14396;SDS011;50653;0.000;0.000;2022-08-19T08:46:00;5.53;;;5.23;;
14396;SDS011;50653;0.000;0.000;2022-08-19T08:51:09;6.60;;;6.20;;
14396;SDS011;50653;0.000;0.000;2022-08-19T08:53:38;7.10;;;6.70;;
14396;SDS011;50653;0.000;0.000;2022-08-19T08:56:06;6.73;;;6.33;;
14396;SDS011;50653;0.000;0.000;2022-08-19T09:01:10;7.00;;;6.60;;
14396;SDS011;50653;0.000;0.000;2022-08-19T09:03:37;7.87;;;7.37;;
14396;SDS011;50653;0.000;0.000;2022-08-19T09:06:07;6.93;;;6.50;;
14396;SDS011;50653;0.000;0.000;2022-08-19T09:16:43;9.20;;;8.60;;
14396;SDS011;50653;0.000;0.000;2022-08-19T09:19:09;9.20;;;8.57;;
14396;SDS011;50653;0.000;0.000;2022-08-19T09:21:36;7.63;;;7.03;;
14396;SDS011;50653;0.000;0.000;2022-08-19T09:24:03;6.80;;;6.30;;
14396;SDS011;50653;0.000;0.000;2022-08-19T09:26:31;6.80;;;6.23;;
14396;SDS011;50653;0.000;0.000;2022-08-19T09:28:57;7.77;;;7.07;;
14396;SDS011;50653;0.000;0.000;2022-08-19T09:31:25;7.17;;;6.33;;
14396;SDS011;50653;0.000;0.000;2022-08-19T09:33:53;8.10;;;7.57;;
14396;SDS011;50653;0.000;0.000;2022-08-19T09:36:22;8.70;;;8.10;;
14396;SDS011;50653;0.000;0.000;2022-08-19T09:38:50;7.50;;;7.10;;
14396;SDS011;50653;0.000;0.000;2022-08-19T09:41:18;7.03;;;6.53;;
14396;SDS011;50653;0.000;0.000;2022-08-19T09:43:47;11.57;;;10.47;;
14396;SDS011;50653;0.000;0.000;2022-08-19T09:46:17;10.33;;;9.63;;
14396;SDS011;50653;0.000;0.000;2022-08-19T09:48:46;8.07;;;7.60;;
14396;SDS011;50653;0.000;0.000;2022-08-19T09:51:15;8.80;;;8.30;;
14396;SDS011;50653;0.000;0.000;2022-08-19T09:53:43;9.43;;;8.73;;
14396;SDS011;50653;0.000;0.000;2022-08-19T09:56:10;10.60;;;9.87;;
14396;SDS011;50653;0.000;0.000;2022-08-19T09:58:36;10.53;;;9.83;;
14396;SDS011;50653;0.000;0.000;2022-08-19T10:01:03;9.57;;;8.97;;
14396;SDS011;50653;0.000;0.000;2022-08-19T10:03:31;9.90;;;9.20;;
14396;SDS011;50653;0.000;0.000;2022-08-19T10:05:59;8.80;;;8.30;;
14396;SDS011;50653;0.000;0.000;2022-08-19T10:08:36;10.20;;;9.50;;
14396;SDS011;50653;0.000;0.000;2022-08-19T10:11:02;10.30;;;9.50;;
14396;SDS011;50653;0.000;0.000;2022-08-19T10:13:30;11.70;;;10.57;;
14396;SDS011;50653;0.000;0.000;2022-08-19T10:16:05;10.27;;;9.57;;
14396;SDS011;50653;0.000;0.000;2022-08-19T10:18:33;10.13;;;9.50;;
14396;SDS011;50653;0.000;0.000;2022-08-19T10:21:05;10.37;;;9.50;;
14396;SDS011;50653;0.000;0.000;2022-08-19T10:23:36;12.70;;;11.70;;
14396;SDS011;50653;0.000;0.000;2022-08-19T10:26:04;11.03;;;10.33;;
14396;SDS011;50653;0.000;0.000;2022-08-19T10:28:32;9.87;;;9.17;;
14396;SDS011;50653;0.000;0.000;2022-08-19T10:31:03;10.13;;;9.17;;
14396;SDS011;50653;0.000;0.000;2022-08-19T10:33:33;11.33;;;10.23;;
14396;SDS011;50653;0.000;0.000;2022-08-19T10:36:01;9.90;;;9.30;;
14396;SDS011;50653;0.000;0.000;2022-08-19T10:38:31;12.13;;;11.07;;
14396;SDS011;50653;0.000;0.000;2022-08-19T10:41:06;11.27;;;10.47;;
14396;SDS011;50653;0.000;0.000;2022-08-19T10:43:32;11.10;;;10.20;;
14396;SDS011;50653;0.000;0.000;2022-08-19T10:46:01;12.23;;;11.20;;
14396;SDS011;50653;0.000;0.000;2022-08-19T10:48:27;13.77;;;12.67;;
14396;SDS011;50653;0.000;0.000;2022-08-19T10:50:52;9.20;;;8.50;;
14396;SDS011;50653;0.000;0.000;2022-08-19T10:53:37;12.30;;;11.40;;
14396;SDS011;50653;0.000;0.000;2022-08-19T10:56:02;10.60;;;9.90;;
14396;SDS011;50653;0.000;0.000;2022-08-19T10:58:51;11.00;;;9.93;;
14396;SDS011;50653;0.000;0.000;2022-08-19T11:01:17;11.30;;;10.60;;
14396;SDS011;50653;0.000;0.000;2022-08-19T11:03:43;10.17;;;9.40;;
14396;SDS011;50653;0.000;0.000;2022-08-19T11:06:10;11.33;;;10.57;;
14396;SDS011;50653;0.000;0.000;2022-08-19T11:08:36;10.93;;;10.03;;
14396;SDS011;50653;0.000;0.000;2022-08-19T11:11:07;12.20;;;11.30;;
14396;SDS011;50653;0.000;0.000;2022-08-19T11:13:34;11.13;;;10.33;;
14396;SDS011;50653;0.000;0.000;2022-08-19T11:16:09;8.30;;;7.70;;
14396;SDS011;50653;0.000;0.000;2022-08-19T11:18:39;9.33;;;8.70;;
14396;SDS011;50653;0.000;0.000;2022-08-19T11:23:38;11.03;;;10.30;;
14396;SDS011;50653;0.000;0.000;2022-08-19T11:26:04;10.70;;;9.93;;
14396;SDS011;50653;0.000;0.000;2022-08-19T11:28:30;10.93;;;10.13;;
14396;SDS011;50653;0.000;0.000;2022-08-19T11:30:55;22.03;;;9.33;;
14396;SDS011;50653;0.000;0.000;2022-08-19T11:33:21;9.53;;;8.87;;
14396;SDS011;50653;0.000;0.000;2022-08-19T11:35:47;9.57;;;8.97;;
14396;SDS011;50653;0.000;0.000;2022-08-19T11:38:14;10.03;;;9.33;;
14396;SDS011;50653;0.000;0.000;2022-08-19T11:40:39;13.63;;;9.90;;
14396;SDS011;50653;0.000;0.000;2022-08-19T11:43:07;10.60;;;9.70;;
14396;SDS011;50653;0.000;0.000;2022-08-19T11:45:34;10.47;;;9.77;;
14396;SDS011;50653;0.000;0.000;2022-08-19T11:48:00;7.80;;;7.30;;
14396;SDS011;50653;0.000;0.000;2022-08-19T11:50:27;8.40;;;8.00;;
14396;SDS011;50653;0.000;0.000;2022-08-19T11:52:54;9.23;;;8.70;;
14396;SDS011;50653;0.000;0.000;2022-08-19T11:55:21;5.80;;;5.50;;
14396;SDS011;50653;0.000;0.000;2022-08-19T11:57:47;8.93;;;8.37;;
14396;SDS011;50653;0.000;0.000;2022-08-19T12:00:13;9.70;;;9.00;;
14396;SDS011;50653;0.000;0.000;2022-08-19T12:02:39;9.17;;;8.27;;
14396;SDS011;50653;0.000;0.000;2022-08-19T12:05:06;8.77;;;8.20;;
14396;SDS011;50653;0.000;0.000;2022-08-19T12:07:32;9.53;;;8.87;;
14396;SDS011;50653;0.000;0.000;2022-08-19T12:09:59;8.50;;;8.00;;
14396;SDS011;50653;0.000;0.000;2022-08-19T12:12:26;11.20;;;10.40;;
14396;SDS011;50653;0.000;0.000;2022-08-19T12:14:52;9.20;;;8.40;;
14396;SDS011;50653;0.000;0.000;2022-08-19T12:17:25;8.47;;;7.97;;
14396;SDS011;50653;0.000;0.000;2022-08-19T12:19:51;8.47;;;7.87;;
14396;SDS011;50653;0.000;0.000;2022-08-19T12:22:17;8.33;;;7.83;;
14396;SDS011;50653;0.000;0.000;2022-08-19T12:24:43;8.97;;;8.50;;
14396;SDS011;50653;0.000;0.000;2022-08-19T12:27:09;7.87;;;7.40;;
14396;SDS011;50653;0.000;0.000;2022-08-19T12:29:34;8.83;;;8.33;;
14396;SDS011;50653;0.000;0.000;2022-08-19T12:32:00;8.47;;;7.77;;
14396;SDS011;50653;0.000;0.000;2022-08-19T12:34:29;8.17;;;7.67;;
14396;SDS011;50653;0.000;0.000;2022-08-19T12:36:57;6.47;;;6.10;;
14396;SDS011;50653;0.000;0.000;2022-08-19T12:39:24;7.30;;;6.60;;
14396;SDS011;50653;0.000;0.000;2022-08-19T12:41:50;7.10;;;6.77;;
14396;SDS011;50653;0.000;0.000;2022-08-19T12:44:16;9.20;;;8.70;;
14396;SDS011;50653;0.000;0.000;2022-08-19T12:46:42;7.90;;;7.17;;
14396;SDS011;50653;0.000;0.000;2022-08-19T12:49:07;6.50;;;6.20;;
14396;SDS011;50653;0.000;0.000;2022-08-19T12:51:33;7.63;;;7.23;;
14396;SDS011;50653;0.000;0.000;2022-08-19T12:53:58;8.03;;;7.23;;
14396;SDS011;50653;0.000;0.000;2022-08-19T12:56:24;7.03;;;6.13;;
14396;SDS011;50653;0.000;0.000;2022-08-19T12:58:50;7.93;;;7.20;;
14396;SDS011;50653;0.000;0.000;2022-08-19T13:01:16;9.03;;;8.43;;
14396;SDS011;50653;0.000;0.000;2022-08-19T13:03:44;8.97;;;8.27;;
14396;SDS011;50653;0.000;0.000;2022-08-19T13:06:11;7.23;;;6.83;;
14396;SDS011;50653;0.000;0.000;2022-08-19T13:08:38;6.07;;;5.77;;
14396;SDS011;50653;0.000;0.000;2022-08-19T13:13:59;5.73;;;5.53;;
14396;SDS011;50653;0.000;0.000;2022-08-19T13:16:27;5.97;;;5.67;;
14396;SDS011;50653;0.000;0.000;2022-08-19T13:18:54;5.97;;;5.67;;
14396;SDS011;50653;0.000;0.000;2022-08-19T13:21:22;7.40;;;6.20;;
14396;SDS011;50653;0.000;0.000;2022-08-19T13:23:49;6.77;;;6.47;;
14396;SDS011;50653;0.000;0.000;2022-08-19T13:26:16;5.47;;;5.20;;
14396;SDS011;50653;0.000;0.000;2022-08-19T13:28:42;7.20;;;6.80;;
14396;SDS011;50653;0.000;0.000;2022-08-19T13:31:29;6.30;;;5.70;;
14396;SDS011;50653;0.000;0.000;2022-08-19T13:34:15;6.37;;;6.07;;
14396;SDS011;50653;0.000;0.000;2022-08-19T13:36:42;7.80;;;7.40;;
14396;SDS011;50653;0.000;0.000;2022-08-19T13:39:08;7.47;;;6.90;;
14396;SDS011;50653;0.000;0.000;2022-08-19T13:41:34;7.57;;;7.20;;
14396;SDS011;50653;0.000;0.000;2022-08-19T13:44:02;8.37;;;7.57;;
14396;SDS011;50653;0.000;0.000;2022-08-19T13:46:28;7.13;;;6.77;;
14396;SDS011;50653;0.000;0.000;2022-08-19T13:48:55;8.87;;;8.40;;
14396;SDS011;50653;0.000;0.000;2022-08-19T13:51:21;9.70;;;8.80;;
14396;SDS011;50653;0.000;0.000;2022-08-19T13:53:47;6.60;;;6.10;;
14396;SDS011;50653;0.000;0.000;2022-08-19T13:56:15;8.30;;;7.80;;
14396;SDS011;50653;0.000;0.000;2022-08-19T13:58:41;8.57;;;8.07;;
14396;SDS011;50653;0.000;0.000;2022-08-19T14:01:08;7.90;;;7.40;;
14396;SDS011;50653;0.000;0.000;2022-08-19T14:03:35;9.53;;;8.80;;
14396;SDS011;50653;0.000;0.000;2022-08-19T14:06:01;10.10;;;9.50;;
14396;SDS011;50653;0.000;0.000;2022-08-19T14:08:26;10.60;;;9.80;;
14396;SDS011;50653;0.000;0.000;2022-08-19T14:10:53;11.67;;;10.80;;
14396;SDS011;50653;0.000;0.000;2022-08-19T14:13:20;11.07;;;10.33;;
14396;SDS011;50653;0.000;0.000;2022-08-19T14:15:50;12.33;;;11.50;;
14396;SDS011;50653;0.000;0.000;2022-08-19T14:18:16;12.17;;;11.27;;
14396;SDS011;50653;0.000;0.000;2022-08-19T14:20:43;9.77;;;9.17;;
14396;SDS011;50653;0.000;0.000;2022-08-19T14:23:09;10.50;;;9.80;;
14396;SDS011;50653;0.000;0.000;2022-08-19T14:25:35;10.23;;;9.53;;
14396;SDS011;50653;0.000;0.000;2022-08-19T14:28:01;8.70;;;8.20;;
14396;SDS011;50653;0.000;0.000;2022-08-19T14:30:29;9.23;;;8.53;;
14396;SDS011;50653;0.000;0.000;2022-08-19T14:32:57;8.40;;;7.80;;
14396;SDS011;50653;0.000;0.000;2022-08-19T14:35:24;10.30;;;9.40;;
14396;SDS011;50653;0.000;0.000;2022-08-19T14:37:51;10.60;;;9.50;;
14396;SDS011;50653;0.000;0.000;2022-08-19T14:40:21;9.37;;;8.70;;
14396;SDS011;50653;0.000;0.000;2022-08-19T14:42:52;12.07;;;11.07;;
14396;SDS011;50653;0.000;0.000;2022-08-19T14:45:24;11.30;;;10.27;;
14396;SDS011;50653;0.000;0.000;2022-08-19T14:47:51;9.87;;;9.17;;
14396;SDS011;50653;0.000;0.000;2022-08-19T14:50:17;10.43;;;8.00;;
14396;SDS011;50653;0.000;0.000;2022-08-19T14:52:43;9.30;;;8.70;;
14396;SDS011;50653;0.000;0.000;2022-08-19T14:55:09;9.13;;;8.00;;
14396;SDS011;50653;0.000;0.000;2022-08-19T14:57:35;8.47;;;7.97;;
14396;SDS011;50653;0.000;0.000;2022-08-19T15:00:02;9.03;;;8.30;;
14396;SDS011;50653;0.000;0.000;2022-08-19T15:02:29;7.40;;;7.00;;
14396;SDS011;50653;0.000;0.000;2022-08-19T15:04:54;18.97;;;12.87;;
14396;SDS011;50653;0.000;0.000;2022-08-19T15:07:20;12.80;;;9.80;;
14396;SDS011;50653;0.000;0.000;2022-08-19T15:09:48;11.13;;;10.20;;
14396;SDS011;50653;0.000;0.000;2022-08-19T15:12:14;26.33;;;9.60;;
14396;SDS011;50653;0.000;0.000;2022-08-19T15:14:40;6.07;;;5.67;;
14396;SDS011;50653;0.000;0.000;2022-08-19T15:17:07;4.40;;;4.10;;
14396;SDS011;50653;0.000;0.000;2022-08-19T15:19:32;15.40;;;5.43;;
14396;SDS011;50653;0.000;0.000;2022-08-19T15:22:00;5.33;;;4.93;;
14396;SDS011;50653;0.000;0.000;2022-08-19T15:24:27;5.10;;;4.80;;
14396;SDS011;50653;0.000;0.000;2022-08-19T15:26:53;6.50;;;6.20;;
14396;SDS011;50653;0.000;0.000;2022-08-19T15:29:20;6.27;;;5.87;;